sensor_id;sensor_type;location;lat;lon;timestamp;temperature;humidity
324;DHT22;149;51.094;17.002;2023-03-03T00:00:11;3.00;99.90
324;DHT22;149;51.094;17.002;2023-03-03T00:02:38;2.70;99.90
324;DHT22;149;51.094;17.002;2023-03-03T00:05:05;2.60;99.90
324;DHT22;149;51.094;17.002;2023-03-03T00:07:32;2.70;99.90
324;DHT22;149;51.094;17.002;2023-03-03T00:10:09;2.50;99.90
324;DHT22;149;51.094;17.002;2023-03-03T00:12:47;2.60;99.90
324;DHT22;149;51.094;17.002;2023-03-03T00:15:17;2.40;99.90
324;DHT22;149;51.094;17.002;2023-03-03T00:17:45;2.10;99.90
324;DHT22;149;51.094;17.002;2023-03-03T00:20:39;2.00;99.90
324;DHT22;149;51.094;17.002;2023-03-03T00:23:36;1.90;99.90
324;DHT22;149;51.094;17.002;2023-03-03T00:26:19;1.80;99.90
324;DHT22;149;51.094;17.002;2023-03-03T00:28:51;1.90;99.90
324;DHT22;149;51.094;17.002;2023-03-03T00:31:32;1.80;99.90
324;DHT22;149;51.094;17.002;2023-03-03T00:34:26;1.80;99.90
324;DHT22;149;51.094;17.002;2023-03-03T00:36:55;1.60;99.90
324;DHT22;149;51.094;17.002;2023-03-03T00:39:38;1.60;99.90
324;DHT22;149;51.094;17.002;2023-03-03T00:42:16;1.30;99.90
324;DHT22;149;51.094;17.002;2023-03-03T00:44:56;1.20;99.90
324;DHT22;149;51.094;17.002;2023-03-03T00:52:39;1.00;99.90
324;DHT22;149;51.094;17.002;2023-03-03T00:55:07;1.00;99.90
324;DHT22;149;51.094;17.002;2023-03-03T00:57:34;0.90;99.90
324;DHT22;149;51.094;17.002;2023-03-03T01:00:01;1.00;99.90
324;DHT22;149;51.094;17.002;2023-03-03T01:02:28;0.90;99.90
324;DHT22;149;51.094;17.002;2023-03-03T01:04:56;0.90;99.90
324;DHT22;149;51.094;17.002;2023-03-03T01:07:23;0.80;99.90
324;DHT22;149;51.094;17.002;2023-03-03T01:09:51;0.80;99.90
324;DHT22;149;51.094;17.002;2023-03-03T01:12:18;0.80;99.90
324;DHT22;149;51.094;17.002;2023-03-03T01:14:45;0.80;99.90
324;DHT22;149;51.094;17.002;2023-03-03T01:17:14;0.80;99.90
324;DHT22;149;51.094;17.002;2023-03-03T01:19:42;0.80;99.90
324;DHT22;149;51.094;17.002;2023-03-03T01:22:08;0.80;99.90
324;DHT22;149;51.094;17.002;2023-03-03T01:24:35;0.70;99.90
324;DHT22;149;51.094;17.002;2023-03-03T01:27:02;0.70;99.90
324;DHT22;149;51.094;17.002;2023-03-03T01:29:29;0.70;99.90
324;DHT22;149;51.094;17.002;2023-03-03T01:31:56;0.90;99.90
324;DHT22;149;51.094;17.002;2023-03-03T01:34:23;1.00;99.90
324;DHT22;149;51.094;17.002;2023-03-03T01:36:50;0.90;99.90
324;DHT22;149;51.094;17.002;2023-03-03T01:39:17;0.80;99.90
324;DHT22;149;51.094;17.002;2023-03-03T01:41:44;0.70;99.90
324;DHT22;149;51.094;17.002;2023-03-03T01:44:14;0.70;99.90
324;DHT22;149;51.094;17.002;2023-03-03T01:46:47;0.90;99.90
324;DHT22;149;51.094;17.002;2023-03-03T01:49:30;1.10;99.90
324;DHT22;149;51.094;17.002;2023-03-03T01:52:01;1.20;99.90
324;DHT22;149;51.094;17.002;2023-03-03T01:54:34;1.30;99.90
324;DHT22;149;51.094;17.002;2023-03-03T01:57:05;1.20;99.90
324;DHT22;149;51.094;17.002;2023-03-03T01:59:36;1.30;99.90
324;DHT22;149;51.094;17.002;2023-03-03T02:02:06;1.40;99.90
324;DHT22;149;51.094;17.002;2023-03-03T02:04:34;1.60;99.90
324;DHT22;149;51.094;17.002;2023-03-03T02:07:04;1.60;99.90
324;DHT22;149;51.094;17.002;2023-03-03T02:12:17;1.60;99.90
324;DHT22;149;51.094;17.002;2023-03-03T02:14:45;1.40;99.90
324;DHT22;149;51.094;17.002;2023-03-03T02:17:11;1.50;99.90
324;DHT22;149;51.094;17.002;2023-03-03T02:22:09;1.10;99.90
324;DHT22;149;51.094;17.002;2023-03-03T02:24:49;1.30;99.90
324;DHT22;149;51.094;17.002;2023-03-03T02:27:16;1.60;99.90
324;DHT22;149;51.094;17.002;2023-03-03T02:29:43;1.50;99.90
324;DHT22;149;51.094;17.002;2023-03-03T02:32:10;1.40;99.90
324;DHT22;149;51.094;17.002;2023-03-03T02:34:48;1.40;99.90
324;DHT22;149;51.094;17.002;2023-03-03T02:37:16;1.40;99.90
324;DHT22;149;51.094;17.002;2023-03-03T02:39:44;1.30;99.90
324;DHT22;149;51.094;17.002;2023-03-03T02:42:22;1.20;99.90
324;DHT22;149;51.094;17.002;2023-03-03T02:44:51;1.30;99.90
324;DHT22;149;51.094;17.002;2023-03-03T02:47:18;1.20;99.90
324;DHT22;149;51.094;17.002;2023-03-03T02:49:45;1.10;99.90
324;DHT22;149;51.094;17.002;2023-03-03T02:52:12;1.30;99.90
324;DHT22;149;51.094;17.002;2023-03-03T02:54:40;1.30;99.90
324;DHT22;149;51.094;17.002;2023-03-03T02:57:07;1.40;99.90
324;DHT22;149;51.094;17.002;2023-03-03T02:59:35;1.10;99.90
324;DHT22;149;51.094;17.002;2023-03-03T03:02:01;0.80;99.90
324;DHT22;149;51.094;17.002;2023-03-03T03:04:29;0.60;99.90
324;DHT22;149;51.094;17.002;2023-03-03T03:06:56;0.70;99.90
324;DHT22;149;51.094;17.002;2023-03-03T03:09:24;0.60;99.90
324;DHT22;149;51.094;17.002;2023-03-03T03:11:51;0.50;99.90
324;DHT22;149;51.094;17.002;2023-03-03T03:14:18;0.70;99.90
324;DHT22;149;51.094;17.002;2023-03-03T03:16:45;0.70;99.90
324;DHT22;149;51.094;17.002;2023-03-03T03:19:13;0.60;99.90
324;DHT22;149;51.094;17.002;2023-03-03T03:21:40;0.70;99.90
324;DHT22;149;51.094;17.002;2023-03-03T03:24:07;0.80;99.90
324;DHT22;149;51.094;17.002;2023-03-03T03:26:33;0.80;99.90
324;DHT22;149;51.094;17.002;2023-03-03T03:29:00;0.80;99.90
324;DHT22;149;51.094;17.002;2023-03-03T03:31:27;0.80;99.90
324;DHT22;149;51.094;17.002;2023-03-03T03:33:55;0.90;99.90
324;DHT22;149;51.094;17.002;2023-03-03T03:36:21;1.00;99.90
324;DHT22;149;51.094;17.002;2023-03-03T03:38:48;1.00;99.90
324;DHT22;149;51.094;17.002;2023-03-03T03:41:15;1.00;99.90
324;DHT22;149;51.094;17.002;2023-03-03T03:43:42;1.00;99.90
324;DHT22;149;51.094;17.002;2023-03-03T03:46:10;0.90;99.90
324;DHT22;149;51.094;17.002;2023-03-03T03:48:37;0.90;99.90
324;DHT22;149;51.094;17.002;2023-03-03T03:51:04;0.90;99.90
324;DHT22;149;51.094;17.002;2023-03-03T03:53:31;0.80;99.90
324;DHT22;149;51.094;17.002;2023-03-03T03:55:57;0.90;99.90
324;DHT22;149;51.094;17.002;2023-03-03T03:58:24;0.90;99.90
324;DHT22;149;51.094;17.002;2023-03-03T04:00:52;1.00;99.90
324;DHT22;149;51.094;17.002;2023-03-03T04:03:18;0.90;99.90
324;DHT22;149;51.094;17.002;2023-03-03T04:05:46;1.00;99.90
324;DHT22;149;51.094;17.002;2023-03-03T04:08:13;1.00;99.90
324;DHT22;149;51.094;17.002;2023-03-03T04:10:40;0.90;99.90
324;DHT22;149;51.094;17.002;2023-03-03T04:13:07;0.90;99.90
324;DHT22;149;51.094;17.002;2023-03-03T04:15:34;0.80;99.90
324;DHT22;149;51.094;17.002;2023-03-03T04:18:01;0.90;99.90
324;DHT22;149;51.094;17.002;2023-03-03T04:20:28;0.70;99.90
324;DHT22;149;51.094;17.002;2023-03-03T04:22:54;0.70;99.90
324;DHT22;149;51.094;17.002;2023-03-03T04:25:22;0.80;99.90
324;DHT22;149;51.094;17.002;2023-03-03T04:27:49;0.60;99.90
324;DHT22;149;51.094;17.002;2023-03-03T04:30:18;0.50;99.90
324;DHT22;149;51.094;17.002;2023-03-03T04:32:45;0.50;99.90
324;DHT22;149;51.094;17.002;2023-03-03T04:35:13;0.40;99.90
324;DHT22;149;51.094;17.002;2023-03-03T04:37:40;0.40;99.90
324;DHT22;149;51.094;17.002;2023-03-03T04:40:08;0.70;99.90
324;DHT22;149;51.094;17.002;2023-03-03T04:42:36;0.90;99.90
324;DHT22;149;51.094;17.002;2023-03-03T04:45:04;1.00;99.90
324;DHT22;149;51.094;17.002;2023-03-03T04:47:31;0.90;99.90
324;DHT22;149;51.094;17.002;2023-03-03T04:49:58;0.90;99.90
324;DHT22;149;51.094;17.002;2023-03-03T04:52:26;0.80;99.90
324;DHT22;149;51.094;17.002;2023-03-03T04:54:53;0.80;99.90
324;DHT22;149;51.094;17.002;2023-03-03T04:57:20;0.80;99.90
324;DHT22;149;51.094;17.002;2023-03-03T04:59:47;0.70;99.90
324;DHT22;149;51.094;17.002;2023-03-03T05:02:14;0.70;99.90
324;DHT22;149;51.094;17.002;2023-03-03T05:04:40;0.60;99.90
324;DHT22;149;51.094;17.002;2023-03-03T05:07:08;0.60;99.90
324;DHT22;149;51.094;17.002;2023-03-03T05:09:35;0.70;99.90
324;DHT22;149;51.094;17.002;2023-03-03T05:12:02;0.60;99.90
324;DHT22;149;51.094;17.002;2023-03-03T05:14:30;0.60;99.90
324;DHT22;149;51.094;17.002;2023-03-03T05:16:57;0.70;99.90
324;DHT22;149;51.094;17.002;2023-03-03T05:19:24;0.90;99.90
324;DHT22;149;51.094;17.002;2023-03-03T05:21:51;1.00;99.90
324;DHT22;149;51.094;17.002;2023-03-03T05:24:18;0.80;99.90
324;DHT22;149;51.094;17.002;2023-03-03T05:26:45;0.80;99.90
324;DHT22;149;51.094;17.002;2023-03-03T05:29:12;0.90;99.90
324;DHT22;149;51.094;17.002;2023-03-03T05:31:39;0.70;99.90
324;DHT22;149;51.094;17.002;2023-03-03T05:34:08;0.70;99.90
324;DHT22;149;51.094;17.002;2023-03-03T05:36:35;0.70;99.90
324;DHT22;149;51.094;17.002;2023-03-03T05:39:03;0.60;99.90
324;DHT22;149;51.094;17.002;2023-03-03T05:41:30;0.60;99.90
324;DHT22;149;51.094;17.002;2023-03-03T05:43:57;0.60;99.90
324;DHT22;149;51.094;17.002;2023-03-03T05:46:23;0.60;99.90
324;DHT22;149;51.094;17.002;2023-03-03T05:48:50;0.60;99.90
324;DHT22;149;51.094;17.002;2023-03-03T05:51:17;0.50;99.90
324;DHT22;149;51.094;17.002;2023-03-03T05:53:45;0.50;99.90
324;DHT22;149;51.094;17.002;2023-03-03T05:56:12;0.50;99.90
324;DHT22;149;51.094;17.002;2023-03-03T05:58:39;0.60;99.90
324;DHT22;149;51.094;17.002;2023-03-03T06:01:06;0.70;99.90
324;DHT22;149;51.094;17.002;2023-03-03T06:03:33;0.60;99.90
324;DHT22;149;51.094;17.002;2023-03-03T06:06:00;0.70;99.90
324;DHT22;149;51.094;17.002;2023-03-03T06:08:27;0.70;99.90
324;DHT22;149;51.094;17.002;2023-03-03T06:10:55;0.70;99.90
324;DHT22;149;51.094;17.002;2023-03-03T06:13:22;0.70;99.90
324;DHT22;149;51.094;17.002;2023-03-03T06:15:51;0.70;99.90
324;DHT22;149;51.094;17.002;2023-03-03T06:18:18;0.60;99.90
324;DHT22;149;51.094;17.002;2023-03-03T06:20:51;0.60;99.90
324;DHT22;149;51.094;17.002;2023-03-03T06:23:18;0.60;99.90
324;DHT22;149;51.094;17.002;2023-03-03T06:25:45;0.80;99.90
324;DHT22;149;51.094;17.002;2023-03-03T06:28:13;0.90;99.90
324;DHT22;149;51.094;17.002;2023-03-03T06:30:40;0.80;99.90
324;DHT22;149;51.094;17.002;2023-03-03T06:33:07;0.70;99.90
324;DHT22;149;51.094;17.002;2023-03-03T06:35:35;0.70;99.90
324;DHT22;149;51.094;17.002;2023-03-03T06:38:03;0.60;99.90
324;DHT22;149;51.094;17.002;2023-03-03T06:40:29;0.60;99.90
324;DHT22;149;51.094;17.002;2023-03-03T06:42:57;0.60;99.90
324;DHT22;149;51.094;17.002;2023-03-03T06:45:24;0.60;99.90
324;DHT22;149;51.094;17.002;2023-03-03T06:47:51;0.60;99.90
324;DHT22;149;51.094;17.002;2023-03-03T06:50:19;0.60;99.90
324;DHT22;149;51.094;17.002;2023-03-03T06:52:47;0.60;99.90
324;DHT22;149;51.094;17.002;2023-03-03T06:55:22;0.60;99.90
324;DHT22;149;51.094;17.002;2023-03-03T06:57:49;0.70;99.90
324;DHT22;149;51.094;17.002;2023-03-03T07:00:23;0.60;99.90
324;DHT22;149;51.094;17.002;2023-03-03T07:03:07;0.70;99.90
324;DHT22;149;51.094;17.002;2023-03-03T07:05:34;0.60;99.90
324;DHT22;149;51.094;17.002;2023-03-03T07:08:01;0.50;99.90
324;DHT22;149;51.094;17.002;2023-03-03T07:10:29;0.50;99.90
324;DHT22;149;51.094;17.002;2023-03-03T07:13:04;0.40;99.90
324;DHT22;149;51.094;17.002;2023-03-03T07:15:34;0.30;99.90
324;DHT22;149;51.094;17.002;2023-03-03T07:18:01;0.20;99.90
324;DHT22;149;51.094;17.002;2023-03-03T07:20:38;0.30;99.90
324;DHT22;149;51.094;17.002;2023-03-03T07:23:22;0.40;99.90
324;DHT22;149;51.094;17.002;2023-03-03T07:25:50;0.40;99.90
324;DHT22;149;51.094;17.002;2023-03-03T07:30:51;0.40;99.90
324;DHT22;149;51.094;17.002;2023-03-03T07:33:25;0.50;99.90
324;DHT22;149;51.094;17.002;2023-03-03T07:35:56;0.50;99.90
324;DHT22;149;51.094;17.002;2023-03-03T07:38:28;0.60;99.90
324;DHT22;149;51.094;17.002;2023-03-03T07:40:58;0.70;99.90
324;DHT22;149;51.094;17.002;2023-03-03T07:48:44;0.90;99.90
324;DHT22;149;51.094;17.002;2023-03-03T07:51:20;1.00;99.90
324;DHT22;149;51.094;17.002;2023-03-03T07:53:59;1.00;99.90
324;DHT22;149;51.094;17.002;2023-03-03T07:56:34;1.10;99.90
324;DHT22;149;51.094;17.002;2023-03-03T07:59:15;1.10;99.90
324;DHT22;149;51.094;17.002;2023-03-03T08:01:45;1.10;99.90
324;DHT22;149;51.094;17.002;2023-03-03T08:06:51;1.20;99.90
324;DHT22;149;51.094;17.002;2023-03-03T08:14:32;1.40;99.90
324;DHT22;149;51.094;17.002;2023-03-03T08:17:00;1.40;99.90
324;DHT22;149;51.094;17.002;2023-03-03T08:19:30;1.60;99.90
324;DHT22;149;51.094;17.002;2023-03-03T08:24:50;1.50;99.90
324;DHT22;149;51.094;17.002;2023-03-03T08:27:17;1.50;99.90
324;DHT22;149;51.094;17.002;2023-03-03T08:29:46;1.40;99.90
324;DHT22;149;51.094;17.002;2023-03-03T08:32:14;1.40;99.90
324;DHT22;149;51.094;17.002;2023-03-03T08:34:41;1.50;99.90
324;DHT22;149;51.094;17.002;2023-03-03T08:37:08;1.50;99.90
324;DHT22;149;51.094;17.002;2023-03-03T08:39:35;1.50;99.90
324;DHT22;149;51.094;17.002;2023-03-03T08:42:02;1.60;99.90
324;DHT22;149;51.094;17.002;2023-03-03T08:44:29;1.60;99.90
324;DHT22;149;51.094;17.002;2023-03-03T08:46:57;1.60;99.90
324;DHT22;149;51.094;17.002;2023-03-03T08:49:24;1.80;99.90
324;DHT22;149;51.094;17.002;2023-03-03T08:51:50;1.80;99.90
324;DHT22;149;51.094;17.002;2023-03-03T08:54:18;1.80;99.90
324;DHT22;149;51.094;17.002;2023-03-03T08:56:44;1.80;99.90
324;DHT22;149;51.094;17.002;2023-03-03T08:59:12;1.80;99.90
324;DHT22;149;51.094;17.002;2023-03-03T09:01:40;1.70;99.90
324;DHT22;149;51.094;17.002;2023-03-03T09:04:09;1.70;99.90
324;DHT22;149;51.094;17.002;2023-03-03T09:06:38;1.70;99.90
324;DHT22;149;51.094;17.002;2023-03-03T09:09:05;1.90;99.90
324;DHT22;149;51.094;17.002;2023-03-03T09:11:33;2.20;99.90
324;DHT22;149;51.094;17.002;2023-03-03T09:14:20;2.10;99.90
324;DHT22;149;51.094;17.002;2023-03-03T09:16:52;1.90;99.90
324;DHT22;149;51.094;17.002;2023-03-03T09:19:26;1.80;99.90
324;DHT22;149;51.094;17.002;2023-03-03T09:22:00;1.80;99.90
324;DHT22;149;51.094;17.002;2023-03-03T09:24:30;1.80;99.90
324;DHT22;149;51.094;17.002;2023-03-03T09:26:58;1.70;99.90
324;DHT22;149;51.094;17.002;2023-03-03T09:29:27;1.70;99.90
324;DHT22;149;51.094;17.002;2023-03-03T09:36:57;1.70;99.90
324;DHT22;149;51.094;17.002;2023-03-03T09:39:29;1.70;99.90
324;DHT22;149;51.094;17.002;2023-03-03T09:45:38;1.60;99.90
324;DHT22;149;51.094;17.002;2023-03-03T09:56:04;2.00;99.90
324;DHT22;149;51.094;17.002;2023-03-03T09:58:35;2.10;99.90
324;DHT22;149;51.094;17.002;2023-03-03T10:10:24;2.30;99.90
324;DHT22;149;51.094;17.002;2023-03-03T10:13:12;2.40;99.90
324;DHT22;149;51.094;17.002;2023-03-03T10:16:11;2.60;99.90
324;DHT22;149;51.094;17.002;2023-03-03T10:18:46;2.60;99.90
324;DHT22;149;51.094;17.002;2023-03-03T10:21:41;2.40;99.90
324;DHT22;149;51.094;17.002;2023-03-03T10:24:42;2.60;99.90
324;DHT22;149;51.094;17.002;2023-03-03T10:36:43;2.70;99.90
324;DHT22;149;51.094;17.002;2023-03-03T10:39:38;2.70;99.90
324;DHT22;149;51.094;17.002;2023-03-03T10:48:32;2.60;99.90
324;DHT22;149;51.094;17.002;2023-03-03T10:51:13;2.70;99.90
324;DHT22;149;51.094;17.002;2023-03-03T10:53:52;2.80;99.90
324;DHT22;149;51.094;17.002;2023-03-03T10:56:38;2.80;99.90
324;DHT22;149;51.094;17.002;2023-03-03T10:59:46;2.90;99.90
324;DHT22;149;51.094;17.002;2023-03-03T11:02:27;3.20;99.90
324;DHT22;149;51.094;17.002;2023-03-03T11:05:31;3.20;99.90
324;DHT22;149;51.094;17.002;2023-03-03T11:08:16;3.30;99.90
324;DHT22;149;51.094;17.002;2023-03-03T11:11:02;3.40;99.90
324;DHT22;149;51.094;17.002;2023-03-03T11:16:49;3.50;99.90
324;DHT22;149;51.094;17.002;2023-03-03T11:19:55;3.40;99.90
324;DHT22;149;51.094;17.002;2023-03-03T11:36:59;3.80;99.90
324;DHT22;149;51.094;17.002;2023-03-03T11:39:27;3.90;99.90
324;DHT22;149;51.094;17.002;2023-03-03T11:44:46;3.70;99.90
324;DHT22;149;51.094;17.002;2023-03-03T11:47:26;3.60;99.90
324;DHT22;149;51.094;17.002;2023-03-03T11:50:03;3.70;99.90
324;DHT22;149;51.094;17.002;2023-03-03T11:55:30;3.70;99.90
324;DHT22;149;51.094;17.002;2023-03-03T11:58:21;3.90;99.90
324;DHT22;149;51.094;17.002;2023-03-03T12:01:08;3.90;99.90
324;DHT22;149;51.094;17.002;2023-03-03T12:04:04;4.10;99.90
324;DHT22;149;51.094;17.002;2023-03-03T12:10:17;4.00;99.90
324;DHT22;149;51.094;17.002;2023-03-03T12:18:27;3.60;99.90
324;DHT22;149;51.094;17.002;2023-03-03T12:27:10;3.30;99.90
324;DHT22;149;51.094;17.002;2023-03-03T12:35:10;3.30;99.90
324;DHT22;149;51.094;17.002;2023-03-03T12:48:43;3.70;99.90
324;DHT22;149;51.094;17.002;2023-03-03T12:51:45;3.70;99.90
324;DHT22;149;51.094;17.002;2023-03-03T12:57:00;3.50;99.90
324;DHT22;149;51.094;17.002;2023-03-03T13:02:14;3.50;99.90
324;DHT22;149;51.094;17.002;2023-03-03T13:04:53;3.50;99.90
324;DHT22;149;51.094;17.002;2023-03-03T13:07:39;3.50;99.90
324;DHT22;149;51.094;17.002;2023-03-03T13:10:20;3.50;99.90
324;DHT22;149;51.094;17.002;2023-03-03T13:15:27;3.80;99.90
324;DHT22;149;51.094;17.002;2023-03-03T13:18:23;3.80;99.90
324;DHT22;149;51.094;17.002;2023-03-03T13:21:16;3.70;99.90
324;DHT22;149;51.094;17.002;2023-03-03T13:26:41;3.80;99.90
324;DHT22;149;51.094;17.002;2023-03-03T13:29:39;3.80;99.90
324;DHT22;149;51.094;17.002;2023-03-03T13:35:42;3.80;99.90
324;DHT22;149;51.094;17.002;2023-03-03T13:38:19;3.70;99.90
324;DHT22;149;51.094;17.002;2023-03-03T13:44:08;4.00;99.90
324;DHT22;149;51.094;17.002;2023-03-03T13:52:28;4.30;99.90
324;DHT22;149;51.094;17.002;2023-03-03T14:06:23;4.00;99.90
324;DHT22;149;51.094;17.002;2023-03-03T14:09:15;4.10;99.90
324;DHT22;149;51.094;17.002;2023-03-03T14:11:59;4.00;99.90
324;DHT22;149;51.094;17.002;2023-03-03T14:14:46;3.90;99.90
324;DHT22;149;51.094;17.002;2023-03-03T14:20:09;3.80;99.90
324;DHT22;149;51.094;17.002;2023-03-03T14:23:00;3.90;99.90
324;DHT22;149;51.094;17.002;2023-03-03T14:25:51;3.90;99.90
324;DHT22;149;51.094;17.002;2023-03-03T14:28:21;3.90;99.90
324;DHT22;149;51.094;17.002;2023-03-03T14:30:52;3.90;99.90
324;DHT22;149;51.094;17.002;2023-03-03T14:33:25;4.10;99.90
324;DHT22;149;51.094;17.002;2023-03-03T14:41:10;4.10;99.90
324;DHT22;149;51.094;17.002;2023-03-03T14:43:41;4.10;99.90
324;DHT22;149;51.094;17.002;2023-03-03T14:48:56;3.90;99.90
324;DHT22;149;51.094;17.002;2023-03-03T14:51:37;4.00;99.90
324;DHT22;149;51.094;17.002;2023-03-03T14:54:27;4.30;99.90
324;DHT22;149;51.094;17.002;2023-03-03T14:57:02;4.20;99.90
324;DHT22;149;51.094;17.002;2023-03-03T14:59:33;4.10;99.90
324;DHT22;149;51.094;17.002;2023-03-03T15:04:44;4.00;99.90
324;DHT22;149;51.094;17.002;2023-03-03T15:09:57;3.80;99.90
324;DHT22;149;51.094;17.002;2023-03-03T15:17:39;3.50;99.90
324;DHT22;149;51.094;17.002;2023-03-03T15:29:07;3.50;99.90
324;DHT22;149;51.094;17.002;2023-03-03T15:34:39;3.70;99.90
324;DHT22;149;51.094;17.002;2023-03-03T15:37:38;3.50;99.90
324;DHT22;149;51.094;17.002;2023-03-03T15:40:29;3.30;99.90
324;DHT22;149;51.094;17.002;2023-03-03T15:51:22;3.00;99.90
324;DHT22;149;51.094;17.002;2023-03-03T15:54:02;2.90;99.90
324;DHT22;149;51.094;17.002;2023-03-03T16:04:37;2.90;99.90
324;DHT22;149;51.094;17.002;2023-03-03T16:12:49;2.70;99.90
324;DHT22;149;51.094;17.002;2023-03-03T16:15:30;2.60;99.90
324;DHT22;149;51.094;17.002;2023-03-03T16:23:30;2.60;99.90
324;DHT22;149;51.094;17.002;2023-03-03T16:29:21;2.50;99.90
324;DHT22;149;51.094;17.002;2023-03-03T16:32:40;2.30;99.90
324;DHT22;149;51.094;17.002;2023-03-03T16:37:36;2.20;99.90
324;DHT22;149;51.094;17.002;2023-03-03T16:43:18;2.30;99.90
324;DHT22;149;51.094;17.002;2023-03-03T16:45:48;2.30;99.90
324;DHT22;149;51.094;17.002;2023-03-03T16:48:25;2.30;99.90
324;DHT22;149;51.094;17.002;2023-03-03T16:56:45;2.30;99.90
324;DHT22;149;51.094;17.002;2023-03-03T16:59:54;2.30;99.90
324;DHT22;149;51.094;17.002;2023-03-03T17:02:51;2.20;99.90
324;DHT22;149;51.094;17.002;2023-03-03T17:05:41;2.10;99.90
324;DHT22;149;51.094;17.002;2023-03-03T17:11:21;2.00;99.90
324;DHT22;149;51.094;17.002;2023-03-03T17:16:59;1.90;99.90
324;DHT22;149;51.094;17.002;2023-03-03T17:22:53;1.90;99.90
324;DHT22;149;51.094;17.002;2023-03-03T17:25:42;1.90;99.90
324;DHT22;149;51.094;17.002;2023-03-03T17:28:42;2.00;99.90
324;DHT22;149;51.094;17.002;2023-03-03T17:31:26;2.00;99.90
324;DHT22;149;51.094;17.002;2023-03-03T17:39:14;2.00;99.90
324;DHT22;149;51.094;17.002;2023-03-03T17:44:36;2.00;99.90
324;DHT22;149;51.094;17.002;2023-03-03T17:47:12;1.90;99.90
324;DHT22;149;51.094;17.002;2023-03-03T17:52:34;2.00;99.90
324;DHT22;149;51.094;17.002;2023-03-03T18:03:32;1.90;99.90
324;DHT22;149;51.094;17.002;2023-03-03T18:06:34;1.80;99.90
324;DHT22;149;51.094;17.002;2023-03-03T18:12:24;1.60;99.90
324;DHT22;149;51.094;17.002;2023-03-03T18:25:58;1.60;99.90
324;DHT22;149;51.094;17.002;2023-03-03T18:28:49;1.50;99.90
324;DHT22;149;51.094;17.002;2023-03-03T18:31:24;1.40;99.90
324;DHT22;149;51.094;17.002;2023-03-03T18:34:07;1.50;99.90
324;DHT22;149;51.094;17.002;2023-03-03T18:36:38;1.50;99.90
324;DHT22;149;51.094;17.002;2023-03-03T18:39:08;1.50;99.90
324;DHT22;149;51.094;17.002;2023-03-03T18:44:37;1.60;99.90
324;DHT22;149;51.094;17.002;2023-03-03T18:47:04;1.50;99.90
324;DHT22;149;51.094;17.002;2023-03-03T18:53:19;1.60;99.90
324;DHT22;149;51.094;17.002;2023-03-03T19:00:50;1.80;99.90
324;DHT22;149;51.094;17.002;2023-03-03T19:05:58;1.80;99.90
324;DHT22;149;51.094;17.002;2023-03-03T19:08:46;1.80;99.90
324;DHT22;149;51.094;17.002;2023-03-03T19:11:51;1.90;99.90
324;DHT22;149;51.094;17.002;2023-03-03T19:16:55;1.80;99.90
324;DHT22;149;51.094;17.002;2023-03-03T19:19:24;1.80;99.90
324;DHT22;149;51.094;17.002;2023-03-03T19:22:23;1.70;99.90
324;DHT22;149;51.094;17.002;2023-03-03T19:33:09;1.60;99.90
324;DHT22;149;51.094;17.002;2023-03-03T19:36:07;1.50;99.90
324;DHT22;149;51.094;17.002;2023-03-03T19:52:37;1.40;99.90
324;DHT22;149;51.094;17.002;2023-03-03T19:55:15;1.40;99.90
324;DHT22;149;51.094;17.002;2023-03-03T19:57:54;1.40;99.90
324;DHT22;149;51.094;17.002;2023-03-03T20:00:45;1.40;99.90
324;DHT22;149;51.094;17.002;2023-03-03T20:03:35;1.40;99.90
324;DHT22;149;51.094;17.002;2023-03-03T20:20:35;1.40;99.90
324;DHT22;149;51.094;17.002;2023-03-03T20:26:17;1.30;99.90
324;DHT22;149;51.094;17.002;2023-03-03T20:29:18;1.40;99.90
324;DHT22;149;51.094;17.002;2023-03-03T20:32:09;1.30;99.90
324;DHT22;149;51.094;17.002;2023-03-03T20:35:16;1.30;99.90
324;DHT22;149;51.094;17.002;2023-03-03T20:38:24;1.30;99.90
324;DHT22;149;51.094;17.002;2023-03-03T20:43:24;1.20;99.90
324;DHT22;149;51.094;17.002;2023-03-03T20:59:56;1.20;99.90
324;DHT22;149;51.094;17.002;2023-03-03T21:05:18;1.20;99.90
324;DHT22;149;51.094;17.002;2023-03-03T21:10:20;1.30;99.90
324;DHT22;149;51.094;17.002;2023-03-03T21:12:55;1.30;99.90
324;DHT22;149;51.094;17.002;2023-03-03T21:15:30;1.20;99.90
324;DHT22;149;51.094;17.002;2023-03-03T21:18:00;1.20;99.90
324;DHT22;149;51.094;17.002;2023-03-03T21:20:44;1.30;99.90
324;DHT22;149;51.094;17.002;2023-03-03T21:23:11;1.30;99.90
324;DHT22;149;51.094;17.002;2023-03-03T21:28:26;1.20;99.90
324;DHT22;149;51.094;17.002;2023-03-03T21:31:13;1.20;99.90
324;DHT22;149;51.094;17.002;2023-03-03T21:36:23;1.30;99.90
324;DHT22;149;51.094;17.002;2023-03-03T21:39:42;1.30;99.90
324;DHT22;149;51.094;17.002;2023-03-03T21:42:39;1.30;99.90
324;DHT22;149;51.094;17.002;2023-03-03T21:45:13;1.30;99.90
324;DHT22;149;51.094;17.002;2023-03-03T21:47:41;1.30;99.90
324;DHT22;149;51.094;17.002;2023-03-03T21:50:08;1.20;99.90
324;DHT22;149;51.094;17.002;2023-03-03T21:52:37;1.20;99.90
324;DHT22;149;51.094;17.002;2023-03-03T21:55:04;1.20;99.90
324;DHT22;149;51.094;17.002;2023-03-03T21:57:31;1.20;99.90
324;DHT22;149;51.094;17.002;2023-03-03T22:00:02;1.20;99.90
324;DHT22;149;51.094;17.002;2023-03-03T22:02:29;1.20;99.90
324;DHT22;149;51.094;17.002;2023-03-03T22:04:56;1.20;99.90
324;DHT22;149;51.094;17.002;2023-03-03T22:07:22;1.20;99.90
324;DHT22;149;51.094;17.002;2023-03-03T22:09:50;1.20;99.90
324;DHT22;149;51.094;17.002;2023-03-03T22:12:17;1.20;99.90
324;DHT22;149;51.094;17.002;2023-03-03T22:14:44;1.20;99.90
324;DHT22;149;51.094;17.002;2023-03-03T22:17:11;1.20;99.90
324;DHT22;149;51.094;17.002;2023-03-03T22:19:37;1.20;99.90
324;DHT22;149;51.094;17.002;2023-03-03T22:22:04;1.20;99.90
324;DHT22;149;51.094;17.002;2023-03-03T22:24:32;1.20;99.90
324;DHT22;149;51.094;17.002;2023-03-03T22:26:59;1.20;99.90
324;DHT22;149;51.094;17.002;2023-03-03T22:29:26;1.10;99.90
324;DHT22;149;51.094;17.002;2023-03-03T22:31:53;1.20;99.90
324;DHT22;149;51.094;17.002;2023-03-03T22:34:20;1.20;99.90
324;DHT22;149;51.094;17.002;2023-03-03T22:36:47;1.20;99.90
324;DHT22;149;51.094;17.002;2023-03-03T22:39:14;1.10;99.90
324;DHT22;149;51.094;17.002;2023-03-03T22:41:41;1.20;99.90
324;DHT22;149;51.094;17.002;2023-03-03T22:44:08;1.20;99.90
324;DHT22;149;51.094;17.002;2023-03-03T22:46:35;1.20;99.90
324;DHT22;149;51.094;17.002;2023-03-03T22:49:02;1.30;99.90
324;DHT22;149;51.094;17.002;2023-03-03T22:51:29;1.20;99.90
324;DHT22;149;51.094;17.002;2023-03-03T22:53:57;1.10;99.90
324;DHT22;149;51.094;17.002;2023-03-03T22:56:24;1.10;99.90
324;DHT22;149;51.094;17.002;2023-03-03T22:58:51;1.20;99.90
324;DHT22;149;51.094;17.002;2023-03-03T23:01:18;1.20;99.90
324;DHT22;149;51.094;17.002;2023-03-03T23:03:45;1.30;99.90
324;DHT22;149;51.094;17.002;2023-03-03T23:06:12;1.30;99.90
324;DHT22;149;51.094;17.002;2023-03-03T23:08:39;1.40;99.90
324;DHT22;149;51.094;17.002;2023-03-03T23:11:06;1.30;99.90
324;DHT22;149;51.094;17.002;2023-03-03T23:13:33;1.30;99.90
324;DHT22;149;51.094;17.002;2023-03-03T23:16:00;1.30;99.90